Time;durP1;ratioP1;P1;durP2;ratioP2;P2;SDS_P1;SDS_P2;PMS_P1;PMS_P2;Temp;Humidity;BMP_temperature;BMP_pressure;BME280_temperature;BME280_humidity;BME280_pressure;Samples;Min_cycle;Max_cycle;Signal;HPM_P1;HPM_P2
2024/02/09 00:00:42;;;;;;;3.5;2.4;;;;;;;;;;;;;
2024/02/09 00:03:07;;;;;;;2.1;1.8;;;;;;;;;;;;;
2024/02/09 00:05:32;;;;;;;3;1.7;;;;;;;;;;;;;
2024/02/09 00:08:00;;;;;;;3;2;;;;;;;;;;;;;
2024/02/09 00:10:23;;;;;;;7.4;5.4;;;;;;;;;;;;;
2024/02/09 00:12:48;;;;;;;18.9;17.2;;;;;;;;;;;;;
2024/02/09 00:15:13;;;;;;;20.9;18.9;;;;;;;;;;;;;
2024/02/09 00:17:38;;;;;;;18.9;17;;;;;;;;;;;;;
2024/02/09 00:20:07;;;;;;;10.6;9.5;;;;;;;;;;;;;
2024/02/09 00:22:28;;;;;;;6.2;5.4;;;;;;;;;;;;;
2024/02/09 00:24:54;;;;;;;6.1;3.5;;;;;;;;;;;;;
2024/02/09 00:27:18;;;;;;;3.2;2.3;;;;;;;;;;;;;
2024/02/09 00:29:44;;;;;;;3.5;2.3;;;;;;;;;;;;;
2024/02/09 00:32:09;;;;;;;3.5;2.1;;;;;;;;;;;;;
2024/02/09 00:34:34;;;;;;;2.6;2.1;;;;;;;;;;;;;
2024/02/09 00:37:00;;;;;;;3.8;1.9;;;;;;;;;;;;;
2024/02/09 00:39:24;;;;;;;2.9;1.9;;;;;;;;;;;;;
2024/02/09 00:41:51;;;;;;;2.1;1.8;;;;;;;;;;;;;
2024/02/09 00:44:16;;;;;;;2.9;1.9;;;;;;;;;;;;;
2024/02/09 00:46:39;;;;;;;4.1;2.2;;;;;;;;;;;;;
2024/02/09 00:49:04;;;;;;;3;1.9;;;;;;;;;;;;;
2024/02/09 00:51:29;;;;;;;2.7;1.9;;;;;;;;;;;;;
2024/02/09 00:53:54;;;;;;;3.3;2;;;;;;;;;;;;;
2024/02/09 00:56:19;;;;;;;3.7;2;;;;;;;;;;;;;
2024/02/09 00:58:45;;;;;;;2.4;1.9;;;;;;;;;;;;;
2024/02/09 01:01:10;;;;;;;2.7;2.1;;;;;;;;;;;;;
2024/02/09 01:03:35;;;;;;;2.1;1.7;;;;;;;;;;;;;
2024/02/09 01:06:00;;;;;;;3.6;2.1;;;;;;;;;;;;;
2024/02/09 01:08:27;;;;;;;3.3;2;;;;;;;;;;;;;
2024/02/09 01:10:50;;;;;;;3.1;2.2;;;;;;;;;;;;;
2024/02/09 02:45:12;;;;;;;3.4;2.5;;;;;;;;;;;;;
2024/02/09 02:47:37;;;;;;;4;2.6;;;;;;;;;;;;;
2024/02/09 03:04:32;;;;;;;4.8;2.8;;;;;;;;;;;;;
2024/02/09 03:06:55;;;;;;;4.7;2.8;;;;;;;;;;;;;
2024/02/09 03:09:20;;;;;;;3.9;2.5;;;;;;;;;;;;;
2024/02/09 03:11:46;;;;;;;3.2;2.8;;;;;;;;;;;;;
2024/02/09 03:14:11;;;;;;;3.3;2.4;;;;;;;;;;;;;
2024/02/09 03:16:36;;;;;;;3.2;2.2;;;;;;;;;;;;;
2024/02/09 03:19:01;;;;;;;4.4;2.6;;;;;;;;;;;;;
2024/02/09 03:21:27;;;;;;;5.5;3;;;;;;;;;;;;;
2024/02/09 03:23:53;;;;;;;3.2;2.7;;;;;;;;;;;;;
2024/02/09 03:26:17;;;;;;;5.5;2.7;;;;;;;;;;;;;
2024/02/09 03:28:43;;;;;;;5.4;3;;;;;;;;;;;;;
2024/02/09 03:31:09;;;;;;;4.5;2.8;;;;;;;;;;;;;
2024/02/09 03:33:32;;;;;;;3.1;2.5;;;;;;;;;;;;;
2024/02/09 03:35:57;;;;;;;6.7;2.7;;;;;;;;;;;;;
2024/02/09 03:38:26;;;;;;;3.6;2.5;;;;;;;;;;;;;
2024/02/09 03:40:51;;;;;;;4;2.6;;;;;;;;;;;;;
2024/02/09 03:43:13;;;;;;;3.7;2.6;;;;;;;;;;;;;
2024/02/09 03:45:41;;;;;;;5.1;2.5;;;;;;;;;;;;;
2024/02/09 03:48:03;;;;;;;5;2.9;;;;;;;;;;;;;
2024/02/09 03:50:28;;;;;;;7.1;3.8;;;;;;;;;;;;;
2024/02/09 03:52:53;;;;;;;5.7;3.4;;;;;;;;;;;;;
2024/02/09 03:55:18;;;;;;;5.7;3.5;;;;;;;;;;;;;
2024/02/09 03:57:44;;;;;;;5.9;3.5;;;;;;;;;;;;;
2024/02/09 04:02:29;;;;;;;4.7;2.8;;;;;;;8.17;87.63867;917.1917;;;;
2024/02/09 04:04:55;;;;;;;4.9;3;;;;;;;8.25;87.16699;917.1844;;;;
2024/02/09 04:07:21;;;;;;;4.6;2.7;;;;;;;8.13;87.50684;917.2424;;;;
2024/02/09 04:09:45;;;;;;;4.9;3.1;;;;;;;8.16;87.80762;917.1856;;;;
2024/02/09 04:12:10;;;;;;;4.1;2.8;;;;;;;8.18;87.64063;917.1155;;;;
2024/02/09 04:14:35;;;;;;;5.6;3.3;;;;;;;8.13;87.74512;917.1472;;;;
2024/02/09 04:17:01;;;;;;;4.2;2.8;;;;;;;8.14;88.24609;917.1035;;;;
2024/02/09 04:19:25;;;;;;;5;2.9;;;;;;;8.12;88.57031;917.0895;;;;
2024/02/09 04:21:50;;;;;;;5;2.7;;;;;;;8.11;88.25;917.0628;;;;
2024/02/09 04:24:16;;;;;;;4.8;2.7;;;;;;;8.07;88.10645;916.9896;;;;
2024/02/09 04:26:41;;;;;;;6.3;2.9;;;;;;;8.09;87.81543;916.9631;;;;
2024/02/09 04:29:07;;;;;;;5.2;2.7;;;;;;;8.09;87.42871;916.964;;;;
2024/02/09 04:31:31;;;;;;;3.8;2.7;;;;;;;8.04;87.62402;916.8625;;;;
2024/02/09 04:33:57;;;;;;;4.1;2.6;;;;;;;8;87.69434;916.8708;;;;
2024/02/09 04:38:24;;;;;;;4.1;2.7;;;;;;;7.94;86.60352;916.947;;;;
2024/02/09 04:40:49;;;;;;;3.2;2.8;;;;;;;7.97;86.95117;916.9378;;;;
2024/02/09 04:43:14;;;;;;;3.1;2.5;;;;;;;7.9;87.52637;916.931;;;;
2024/02/09 04:45:39;;;;;;;4.8;2.8;;;;;;;7.85;87.68945;916.9705;;;;
2024/02/09 04:48:05;;;;;;;3.4;2.6;;;;;;;7.81;87.41797;916.9822;;;;
2024/02/09 04:50:30;;;;;;;5.4;3;;;;;;;7.81;87.61035;917.0005;;;;
2024/02/09 04:52:56;;;;;;;6.3;3.2;;;;;;;7.74;87.52734;917.0147;;;;
2024/02/09 04:55:20;;;;;;;4.2;3.1;;;;;;;7.68;88.06055;917.0623;;;;
2024/02/09 04:57:45;;;;;;;5.4;3.1;;;;;;;7.79;87.57227;917.113;;;;
2024/02/09 05:00:10;;;;;;;3.7;2.9;;;;;;;7.65;87.8291;917.0081;;;;
2024/02/09 05:02:36;;;;;;;6.4;2.8;;;;;;;7.75;88.03027;917.07;;;;
2024/02/09 05:05:01;;;;;;;4.2;2.8;;;;;;;7.66;88.2959;917.1188;;;;
2024/02/09 05:07:26;;;;;;;4.9;3;;;;;;;7.62;87.44922;917.098;;;;
2024/02/09 05:09:51;;;;;;;5.3;3.3;;;;;;;7.51;88.11621;917.1356;;;;
2024/02/09 05:12:16;;;;;;;4.4;3.3;;;;;;;7.48;88.18848;916.9698;;;;
2024/02/09 05:14:41;;;;;;;3.6;2.9;;;;;;;7.46;88.06152;916.9684;;;;
2024/02/09 05:17:06;;;;;;;5.8;3.7;;;;;;;7.51;88.18457;917.0295;;;;
2024/02/09 05:19:31;;;;;;;7.2;4.4;;;;;;;7.48;88.26758;916.95;;;;
2024/02/09 05:21:57;;;;;;;10.3;5.6;;;;;;;7.4;88.75195;916.9199;;;;
2024/02/09 05:24:23;;;;;;;8.7;5.7;;;;;;;7.44;88.93066;916.9592;;;;
2024/02/09 05:26:46;;;;;;;8.5;5.4;;;;;;;7.53;88.52832;916.897;;;;
2024/02/09 05:29:11;;;;;;;11.4;6.5;;;;;;;7.52;88.49219;916.8853;;;;
2024/02/09 05:31:41;;;;;;;11.2;6.1;;;;;;;7.52;88.39063;916.7879;;;;
2024/02/09 05:34:05;;;;;;;11.3;7;;;;;;;7.44;88.26074;916.8192;;;;
2024/02/09 05:36:27;;;;;;;16.7;10.4;;;;;;;7.28;88.80664;916.9436;;;;
2024/02/09 05:38:52;;;;;;;14.3;8.7;;;;;;;7.22;89.07715;916.9658;;;;
2024/02/09 05:41:17;;;;;;;11.8;6.7;;;;;;;7.24;89.28613;916.9219;;;;
2024/02/09 05:43:42;;;;;;;8.5;5.7;;;;;;;7.26;89.19824;916.9155;;;;
2024/02/09 05:46:07;;;;;;;9.6;6.3;;;;;;;7.3;88.6748;917.0036;;;;
2024/02/09 05:48:32;;;;;;;9.3;5.9;;;;;;;7.15;89.29004;917.0969;;;;
2024/02/09 05:50:57;;;;;;;15.9;8.7;;;;;;;7.19;89.22949;916.9136;;;;
2024/02/09 05:53:23;;;;;;;9.8;6.2;;;;;;;7.2;89.07324;916.991;;;;
2024/02/09 05:55:48;;;;;;;8.2;5.6;;;;;;;7.26;89.25488;917.0642;;;;
2024/02/09 05:58:13;;;;;;;8.9;5.8;;;;;;;7.29;88.6748;917.0661;;;;
2024/02/09 06:00:38;;;;;;;12.4;7.9;;;;;;;7.36;88.06445;917.0865;;;;
2024/02/09 06:03:04;;;;;;;17;10.5;;;;;;;7.22;88.44238;917.1437;;;;
2024/02/09 06:05:28;;;;;;;12.5;8;;;;;;;7.21;88.28223;917.0822;;;;
2024/02/09 06:07:53;;;;;;;10.4;7.2;;;;;;;7.18;87.63086;917.0435;;;;
2024/02/09 06:10:19;;;;;;;10;7.1;;;;;;;7.22;87.93262;917.037;;;;
2024/02/09 06:12:44;;;;;;;10;7.2;;;;;;;7.15;88.05371;917.0605;;;;
2024/02/09 06:15:10;;;;;;;9.9;7;;;;;;;7.07;87.64063;916.9744;;;;
2024/02/09 06:17:33;;;;;;;8.5;6.1;;;;;;;7.05;88.08984;916.9944;;;;
2024/02/09 06:19:58;;;;;;;10.1;6.4;;;;;;;7;88.1709;916.9774;;;;
2024/02/09 06:22:25;;;;;;;9.1;6.1;;;;;;;7.01;87.65234;917.0226;;;;
2024/02/09 06:24:57;;;;;;;9.1;5.6;;;;;;;7.04;88.15625;916.978;;;;
2024/02/09 06:27:14;;;;;;;9.9;5.6;;;;;;;7.14;87.96094;916.9839;;;;
2024/02/09 06:29:39;;;;;;;9.5;5.3;;;;;;;7.15;87.73633;916.9805;;;;
2024/02/09 06:32:04;;;;;;;7.7;5.7;;;;;;;7.05;88.02246;917.0269;;;;
2024/02/09 06:34:29;;;;;;;7.8;5.5;;;;;;;6.91;88.37695;917.0094;;;;
2024/02/09 06:36:54;;;;;;;10.2;5.7;;;;;;;6.91;88.2998;917.0235;;;;
2024/02/09 06:39:19;;;;;;;7.8;5.7;;;;;;;6.87;87.79297;917.0256;;;;
2024/02/09 06:41:47;;;;;;;9.4;6.6;;;;;;;6.69;87.7666;916.975;;;;
2024/02/09 06:44:10;;;;;;;9.3;6.4;;;;;;;6.62;87.82227;917.0659;;;;
2024/02/09 06:46:35;;;;;;;8.2;6.5;;;;;;;6.59;88.76465;917.0233;;;;
2024/02/09 06:49:00;;;;;;;10.3;6.1;;;;;;;6.59;88.88965;916.9996;;;;
2024/02/09 06:51:25;;;;;;;8.4;5.6;;;;;;;6.61;89.07617;917.0731;;;;
2024/02/09 06:53:50;;;;;;;10.8;6.3;;;;;;;6.7;89.0498;917.0983;;;;
2024/02/09 06:56:15;;;;;;;8.8;5.7;;;;;;;6.77;88.76855;917.1292;;;;
2024/02/09 06:58:40;;;;;;;6.8;5.3;;;;;;;6.78;88.90625;917.2303;;;;
2024/02/09 07:01:10;;;;;;;6;4.7;;;;;;;6.74;88.66113;917.2402;;;;
2024/02/09 07:03:30;;;;;;;8.1;4.9;;;;;;;6.78;87.91016;917.1702;;;;
2024/02/09 07:06:01;;;;;;;9.9;5.3;;;;;;;6.78;88.60254;917.182;;;;
2024/02/09 07:08:30;;;;;;;6.2;5.1;;;;;;;6.78;88.80566;917.2683;;;;
2024/02/09 07:10:46;;;;;;;9.2;5.6;;;;;;;6.83;89.0752;917.2032;;;;
2024/02/09 07:13:11;;;;;;;10.7;6;;;;;;;6.95;88.74902;917.0831;;;;
2024/02/09 07:15:36;;;;;;;8.5;5.8;;;;;;;6.97;88.53711;917.0355;;;;
2024/02/09 07:18:01;;;;;;;8.6;5.7;;;;;;;7.02;88.48047;917.0383;;;;
2024/02/09 07:20:26;;;;;;;7.5;5.4;;;;;;;7.08;87.56348;917.1082;;;;
2024/02/09 07:22:52;;;;;;;9.3;5.5;;;;;;;7.15;88.00879;917.0874;;;;
2024/02/09 07:25:16;;;;;;;9.2;5.5;;;;;;;7.35;87.58496;917.067;;;;
2024/02/09 07:27:41;;;;;;;11.5;5.6;;;;;;;7.43;87.20605;916.9973;;;;
2024/02/09 07:30:06;;;;;;;8.4;5.7;;;;;;;7.45;87.35742;916.9441;;;;
2024/02/09 07:32:32;;;;;;;10.2;5.2;;;;;;;7.53;86.85059;916.9469;;;;
2024/02/09 07:34:57;;;;;;;8.7;5.7;;;;;;;7.57;86.74609;916.8442;;;;
2024/02/09 07:37:22;;;;;;;8.5;5.1;;;;;;;7.7;86.5332;916.9464;;;;
2024/02/09 07:39:47;;;;;;;9.3;5.9;;;;;;;7.8;86.12207;916.9853;;;;
2024/02/09 07:42:12;;;;;;;9.7;6;;;;;;;7.91;85.04492;916.9189;;;;
2024/02/09 07:44:39;;;;;;;11.5;6.5;;;;;;;7.96;84.91797;916.9174;;;;
2024/02/09 07:47:04;;;;;;;8.9;6.1;;;;;;;8.04;85.06836;916.8594;;;;
2024/02/09 07:49:31;;;;;;;11;6.5;;;;;;;8.1;84.83301;916.8908;;;;
2024/02/09 07:51:53;;;;;;;10.5;6.5;;;;;;;8.2;85.15918;916.9692;;;;
2024/02/09 07:54:19;;;;;;;10.4;6.4;;;;;;;8.28;84.18652;916.9111;;;;
2024/02/09 07:56:43;;;;;;;9.9;6.4;;;;;;;8.41;83.46191;916.8974;;;;
2024/02/09 07:59:08;;;;;;;9.5;6.1;;;;;;;8.31;83.52344;916.7965;;;;
2024/02/09 08:01:33;;;;;;;9.1;6.4;;;;;;;8.44;82.39941;916.749;;;;
2024/02/09 08:03:58;;;;;;;11.9;7.3;;;;;;;8.38;83.28418;916.9662;;;;
2024/02/09 08:06:24;;;;;;;12;7.1;;;;;;;8.33;83.83398;916.8516;;;;
2024/02/09 08:08:52;;;;;;;11.1;6.8;;;;;;;8.37;84.04395;916.8394;;;;
2024/02/09 08:11:14;;;;;;;12.3;7.2;;;;;;;8.4;83.65332;916.8024;;;;
2024/02/09 08:13:39;;;;;;;16.9;10.2;;;;;;;8.44;83.69434;916.9052;;;;
2024/02/09 08:16:04;;;;;;;19.6;10.9;;;;;;;8.44;83.64844;916.8068;;;;
2024/02/09 08:18:31;;;;;;;14.6;8.8;;;;;;;8.55;83.98828;916.7525;;;;
2024/02/09 08:20:55;;;;;;;15.5;8.1;;;;;;;8.62;83.68359;916.6809;;;;
2024/02/09 08:23:20;;;;;;;18.1;10.2;;;;;;;8.64;83.94922;916.7773;;;;
2024/02/09 08:25:45;;;;;;;20.7;11;;;;;;;8.72;82.99805;916.7886;;;;
2024/02/09 08:28:10;;;;;;;16.3;9.3;;;;;;;8.74;83.20605;916.8192;;;;
2024/02/09 08:30:35;;;;;;;11.8;7.3;;;;;;;8.69;82.12891;916.7367;;;;
2024/02/09 08:33:01;;;;;;;11.1;7.2;;;;;;;8.72;81.85156;916.7742;;;;
2024/02/09 08:35:26;;;;;;;10.8;7.4;;;;;;;8.75;81.42285;916.7943;;;;
2024/02/09 08:37:51;;;;;;;13.8;7.9;;;;;;;8.92;80.94336;916.8723;;;;
2024/02/09 08:40:16;;;;;;;11.5;7.7;;;;;;;8.89;81.22168;916.7452;;;;
2024/02/09 08:42:42;;;;;;;13.3;8.2;;;;;;;8.94;81.81348;916.8172;;;;
2024/02/09 08:45:06;;;;;;;12.2;8;;;;;;;8.97;81.11523;916.7332;;;;
2024/02/09 08:47:34;;;;;;;13.1;7.5;;;;;;;9.09;81.10059;916.72;;;;
2024/02/09 08:49:58;;;;;;;14.7;9.1;;;;;;;9.12;80.83301;916.7466;;;;
2024/02/09 08:52:21;;;;;;;15.9;8.6;;;;;;;9.16;80.01074;916.6694;;;;
2024/02/09 08:54:47;;;;;;;17;9;;;;;;;9.25;79.78711;916.7339;;;;
2024/02/09 08:57:12;;;;;;;12;7.7;;;;;;;9.3;79.75098;916.7352;;;;
2024/02/09 08:59:39;;;;;;;11.3;7.2;;;;;;;9.37;79.86523;916.7211;;;;
2024/02/09 09:02:02;;;;;;;9.5;5.6;;;;;;;9.42;79.08984;916.6543;;;;
2024/02/09 09:04:27;;;;;;;10.4;5.7;;;;;;;9.53;78.86035;916.6114;;;;
2024/02/09 09:06:52;;;;;;;9.1;6.1;;;;;;;9.61;78.37402;916.5781;;;;
2024/02/09 09:09:17;;;;;;;8;5.5;;;;;;;9.7;78.27637;916.5825;;;;
2024/02/09 09:11:43;;;;;;;8.5;5.5;;;;;;;9.75;77.47754;916.6917;;;;
2024/02/09 09:14:07;;;;;;;11;5.9;;;;;;;9.84;77.08105;916.637;;;;
2024/02/09 09:16:32;;;;;;;8.6;5.9;;;;;;;9.89;76.97656;916.6856;;;;
2024/02/09 09:19:00;;;;;;;11.1;6.9;;;;;;;9.97;76.85352;916.6577;;;;
2024/02/09 09:21:23;;;;;;;12;7.1;;;;;;;9.99;76.42578;916.6897;;;;
2024/02/09 09:23:48;;;;;;;13;7.3;;;;;;;10.05;76.41113;916.6592;;;;
2024/02/09 09:26:13;;;;;;;12.5;7;;;;;;;10.13;76.7334;916.5405;;;;
2024/02/09 09:28:38;;;;;;;8.4;6.1;;;;;;;10.16;77.41113;916.6526;;;;
2024/02/09 09:31:04;;;;;;;8.5;5.2;;;;;;;10.14;77.0332;916.6395;;;;
2024/02/09 09:33:29;;;;;;;7.2;5.1;;;;;;;10.15;76.46484;916.6234;;;;
2024/02/09 09:35:55;;;;;;;8.4;5.1;;;;;;;10.16;76.43164;916.6247;;;;
2024/02/09 09:38:19;;;;;;;7.3;4.7;;;;;;;10.17;75.52148;916.6348;;;;
2024/02/09 09:40:44;;;;;;;7.4;5.3;;;;;;;10.2;75.91406;916.6531;;;;
2024/02/09 09:43:09;;;;;;;8.7;5.4;;;;;;;10.22;76.24902;916.6749;;;;
2024/02/09 09:45:35;;;;;;;7.9;5.3;;;;;;;10.25;75.65918;916.6423;;;;
2024/02/09 09:47:59;;;;;;;10.2;5.5;;;;;;;10.17;75.70313;916.6889;;;;
2024/02/09 09:50:25;;;;;;;8.6;5.3;;;;;;;10.16;75.4834;916.6384;;;;
2024/02/09 09:52:50;;;;;;;7.8;4.6;;;;;;;10.3;75.75;916.6529;;;;
2024/02/09 09:55:15;;;;;;;6.2;4.4;;;;;;;10.4;75.37793;916.6378;;;;
2024/02/09 09:57:40;;;;;;;7.6;5.2;;;;;;;10.44;74.96191;916.7087;;;;
2024/02/09 10:00:05;;;;;;;7.7;5.1;;;;;;;10.35;74.70801;916.7344;;;;
2024/02/09 10:02:30;;;;;;;6.8;5.2;;;;;;;10.37;74.89355;916.7277;;;;
2024/02/09 10:04:58;;;;;;;8.1;5.7;;;;;;;10.47;75.40332;916.6767;;;;
2024/02/09 10:07:21;;;;;;;8.4;5.4;;;;;;;10.47;75.10352;916.6635;;;;
2024/02/09 10:09:46;;;;;;;8.7;5.3;;;;;;;10.46;74.67969;916.7137;;;;
2024/02/09 10:12:12;;;;;;;7.2;4.9;;;;;;;10.54;74.59277;916.6472;;;;
2024/02/09 10:14:36;;;;;;;6.5;4.7;;;;;;;10.66;74.13281;916.6492;;;;
2024/02/09 10:17:02;;;;;;;6.7;3.6;;;;;;;10.78;73.46777;916.6437;;;;
2024/02/09 10:19:28;;;;;;;3.8;2.9;;;;;;;10.85;73.22852;916.6238;;;;
2024/02/09 10:21:52;;;;;;;4.5;3;;;;;;;11.01;73.08301;916.5527;;;;
2024/02/09 10:24:17;;;;;;;4.2;3;;;;;;;11.06;73.10547;916.4559;;;;
2024/02/09 10:26:43;;;;;;;4.7;3.3;;;;;;;11.08;72.82422;916.413;;;;
2024/02/09 10:29:09;;;;;;;3.7;3;;;;;;;11.19;72.29199;916.403;;;;
2024/02/09 10:31:32;;;;;;;5;3.5;;;;;;;11.3;72.28711;916.3865;;;;
2024/02/09 10:33:58;;;;;;;6;3.5;;;;;;;11.5;71.46191;916.3046;;;;
2024/02/09 10:36:22;;;;;;;5.4;3.3;;;;;;;11.74;71.375;916.28;;;;
2024/02/09 10:38:48;;;;;;;5.1;3.4;;;;;;;11.83;70.02637;916.1791;;;;
2024/02/09 10:41:13;;;;;;;5;3.7;;;;;;;11.93;69.72363;916.2028;;;;
2024/02/09 10:43:38;;;;;;;4.3;3.1;;;;;;;12.03;68.69727;916.1978;;;;
2024/02/09 10:46:03;;;;;;;5.3;3.1;;;;;;;12.13;69.05762;916.1369;;;;
2024/02/09 10:48:28;;;;;;;4.6;3.3;;;;;;;12.29;69.07129;916.1169;;;;
2024/02/09 10:50:55;;;;;;;5.4;3.1;;;;;;;12.33;67.93164;916.0532;;;;
2024/02/09 10:53:18;;;;;;;3.7;2.9;;;;;;;12.44;68.06348;916.1082;;;;
2024/02/09 10:55:43;;;;;;;4.3;2.9;;;;;;;12.68;68.25879;915.9991;;;;
2024/02/09 10:58:09;;;;;;;5.4;2.9;;;;;;;12.98;67.10156;916.0672;;;;
2024/02/09 11:00:35;;;;;;;4.6;2.7;;;;;;;13.18;65.50098;915.9788;;;;
2024/02/09 11:02:59;;;;;;;4.1;2.5;;;;;;;13.34;64.53711;915.9084;;;;
2024/02/09 11:05:24;;;;;;;4.4;2.4;;;;;;;13.55;64.76465;915.9144;;;;
2024/02/09 11:07:49;;;;;;;3.9;2.5;;;;;;;13.67;64.40137;915.8912;;;;
2024/02/09 11:10:14;;;;;;;4.1;2.7;;;;;;;13.93;62.62207;915.7547;;;;
2024/02/09 11:12:39;;;;;;;3.5;2.6;;;;;;;13.92;62.43652;915.6839;;;;
2024/02/09 11:15:04;;;;;;;3.4;2.4;;;;;;;13.87;62.41699;915.7034;;;;
2024/02/09 11:17:30;;;;;;;4.9;2.5;;;;;;;13.96;63.15625;915.6886;;;;
2024/02/09 11:19:54;;;;;;;3.7;2.3;;;;;;;13.99;63.23047;915.537;;;;
2024/02/09 11:22:20;;;;;;;4.8;2.7;;;;;;;14.16;62.35645;915.5359;;;;
2024/02/09 11:24:45;;;;;;;4.1;2.3;;;;;;;14.19;61.71582;915.4686;;;;
2024/02/09 11:27:10;;;;;;;2.3;2;;;;;;;14.31;61.17969;915.4614;;;;
2024/02/09 11:29:35;;;;;;;2.7;2.2;;;;;;;14.41;60.60742;915.4796;;;;
2024/02/09 11:32:01;;;;;;;3.1;2.1;;;;;;;14.55;60.12891;915.4889;;;;
2024/02/09 11:34:26;;;;;;;4.6;2.4;;;;;;;14.56;60.20117;915.4213;;;;
2024/02/09 11:36:52;;;;;;;3;2.2;;;;;;;14.76;60.49316;915.3574;;;;
2024/02/09 11:39:16;;;;;;;3.6;2.4;;;;;;;15.06;60.24707;915.3038;;;;
2024/02/09 11:41:42;;;;;;;2.9;2.2;;;;;;;15.09;59.45508;915.2475;;;;
2024/02/09 11:44:06;;;;;;;3.6;2.3;;;;;;;15;59.32715;915.2566;;;;
2024/02/09 11:46:35;;;;;;;2.8;2.5;;;;;;;15.09;59.41992;915.2026;;;;
2024/02/09 11:48:59;;;;;;;2.6;2;;;;;;;15.21;59.14746;915.1714;;;;
2024/02/09 11:51:22;;;;;;;2.9;2.1;;;;;;;15.26;57.78125;915.1726;;;;
2024/02/09 11:53:46;;;;;;;2.7;1.9;;;;;;;15.21;57.65918;915.1323;;;;
2024/02/09 11:56:11;;;;;;;3.2;2.1;;;;;;;15.19;58.17578;915.0963;;;;
2024/02/09 11:58:36;;;;;;;4;1.9;;;;;;;15.23;57.72949;915.07;;;;
2024/02/09 12:01:02;;;;;;;2.6;2.1;;;;;;;15.11;57.7959;915.0206;;;;
2024/02/09 12:03:27;;;;;;;3.2;2.1;;;;;;;15.07;57.77832;914.9888;;;;
2024/02/09 12:05:52;;;;;;;2.1;1.8;;;;;;;14.81;58.5752;914.9796;;;;
2024/02/09 12:08:17;;;;;;;2.2;2;;;;;;;14.91;59.03809;914.9177;;;;
2024/02/09 12:10:42;;;;;;;2.4;2;;;;;;;14.93;58.5332;914.96;;;;
2024/02/09 12:13:08;;;;;;;4.8;2.1;;;;;;;14.97;58.22656;914.9085;;;;
2024/02/09 12:15:32;;;;;;;5.1;2.3;;;;;;;14.88;58.2041;914.9406;;;;
2024/02/09 12:18:01;;;;;;;3.6;2.1;;;;;;;14.7;59.34473;914.841;;;;
2024/02/09 12:20:23;;;;;;;4.3;2.3;;;;;;;14.79;58.87109;914.7914;;;;
2024/02/09 12:22:48;;;;;;;3.7;2.2;;;;;;;14.74;58.88672;914.7177;;;;
2024/02/09 12:25:13;;;;;;;3.8;2.3;;;;;;;14.71;58.72363;914.8021;;;;
2024/02/09 12:27:38;;;;;;;3.8;2;;;;;;;14.75;58.99316;914.79;;;;
2024/02/09 12:30:03;;;;;;;5;2.4;;;;;;;14.83;58.88867;914.7274;;;;
2024/02/09 12:32:29;;;;;;;4.1;2.2;;;;;;;14.88;59.05762;914.7395;;;;
2024/02/09 12:34:54;;;;;;;3.6;2.1;;;;;;;14.91;59.23438;914.6685;;;;
2024/02/09 12:37:18;;;;;;;4;2.3;;;;;;;14.88;59.31055;914.6245;;;;
2024/02/09 12:39:44;;;;;;;2.1;1.8;;;;;;;14.88;59.23047;914.5223;;;;
2024/02/09 12:42:09;;;;;;;4.1;2.2;;;;;;;14.88;59.23047;914.5336;;;;
2024/02/09 12:44:34;;;;;;;3.5;2.3;;;;;;;14.88;59.72559;914.5273;;;;
2024/02/09 12:47:02;;;;;;;3.5;2.2;;;;;;;14.85;59.70996;914.4925;;;;
2024/02/09 12:49:24;;;;;;;3.4;2.3;;;;;;;14.93;59.73145;914.4772;;;;
2024/02/09 12:51:49;;;;;;;3.1;2.2;;;;;;;14.65;59.45215;914.4788;;;;
2024/02/09 12:54:14;;;;;;;2.6;2;;;;;;;14.8;59.55273;914.3586;;;;
2024/02/09 12:56:39;;;;;;;2.5;1.9;;;;;;;14.67;59.88184;914.233;;;;
2024/02/09 12:59:07;;;;;;;4.1;2.3;;;;;;;14.83;58.93652;914.3035;;;;
2024/02/09 13:01:30;;;;;;;7.8;2.4;;;;;;;14.93;59.37402;914.2576;;;;
2024/02/09 13:03:56;;;;;;;4.6;2.7;;;;;;;15.06;60.28223;914.2645;;;;
2024/02/09 13:06:20;;;;;;;3.3;2.1;;;;;;;14.94;58.73047;914.1512;;;;
2024/02/09 13:08:45;;;;;;;4.7;2.5;;;;;;;15.02;59.09863;914.1453;;;;
2024/02/09 13:11:10;;;;;;;4.1;2.3;;;;;;;15.07;59.13965;914.1039;;;;
2024/02/09 13:13:37;;;;;;;3.8;2.3;;;;;;;15.13;58.53809;914.048;;;;
2024/02/09 13:16:00;;;;;;;2.7;2.2;;;;;;;15.1;57.7832;914.0991;;;;
2024/02/09 13:18:25;;;;;;;4.1;2.3;;;;;;;15.18;58.04688;914.0025;;;;
2024/02/09 13:20:51;;;;;;;2.6;1.9;;;;;;;15.21;58.88379;913.9608;;;;
2024/02/09 13:23:23;;;;;;;3;2.2;;;;;;;14.96;58.60742;913.9009;;;;
2024/02/09 13:25:41;;;;;;;4.4;2.4;;;;;;;15.11;59.78027;913.868;;;;
2024/02/09 13:28:06;;;;;;;4.5;2.2;;;;;;;15.15;59.52051;913.8555;;;;
2024/02/09 13:30:31;;;;;;;3.8;2.1;;;;;;;15.12;60.50879;913.8906;;;;
2024/02/09 13:32:56;;;;;;;4.4;1.9;;;;;;;15.1;60.83984;913.9175;;;;
2024/02/09 13:35:21;;;;;;;4.2;2.2;;;;;;;15.15;60.43164;913.8892;;;;
2024/02/09 13:37:48;;;;;;;2.2;2;;;;;;;15;60.07617;913.9034;;;;
2024/02/09 13:40:15;;;;;;;4.9;2;;;;;;;14.91;61.22949;913.8865;;;;
2024/02/09 13:42:37;;;;;;;2.3;1.9;;;;;;;14.88;60.51074;913.8631;;;;
2024/02/09 13:45:02;;;;;;;3.6;1.8;;;;;;;14.9;61.43457;913.9688;;;;
2024/02/09 13:47:30;;;;;;;3.8;1.9;;;;;;;14.76;60.78125;913.9228;;;;
2024/02/09 13:49:52;;;;;;;2.4;1.8;;;;;;;14.63;60.89063;913.9078;;;;
2024/02/09 13:52:17;;;;;;;3.9;2;;;;;;;14.36;61.79785;913.8566;;;;
2024/02/09 13:54:42;;;;;;;4.4;2.2;;;;;;;14.22;62.65332;913.8267;;;;
2024/02/09 13:57:07;;;;;;;4.5;2.5;;;;;;;14.28;63.53613;913.8059;;;;
2024/02/09 13:59:32;;;;;;;3.8;2.5;;;;;;;14.41;63.29004;913.7544;;;;
2024/02/09 14:01:57;;;;;;;4.2;2.5;;;;;;;14.26;63.40723;913.7033;;;;
2024/02/09 14:04:25;;;;;;;3.2;2.2;;;;;;;14.1;64.07422;913.6927;;;;
2024/02/09 14:06:47;;;;;;;6.6;2.7;;;;;;;13.92;64.62305;913.7347;;;;
2024/02/09 14:09:12;;;;;;;4.5;2.5;;;;;;;13.92;65.35938;913.8295;;;;
2024/02/09 14:11:38;;;;;;;3.6;2.5;;;;;;;13.87;65.43164;913.8342;;;;
2024/02/09 14:14:02;;;;;;;3.4;2.4;;;;;;;13.73;65.21484;913.8856;;;;
2024/02/09 14:16:27;;;;;;;3.2;2.2;;;;;;;13.83;65.25391;913.9144;;;;
2024/02/09 14:18:52;;;;;;;4.9;2.3;;;;;;;13.76;65.36914;913.9116;;;;
2024/02/09 14:21:18;;;;;;;4.9;2.6;;;;;;;13.66;65.73438;913.9988;;;;
2024/02/09 14:23:43;;;;;;;3.8;2.3;;;;;;;13.69;65.63574;913.9903;;;;
2024/02/09 14:26:08;;;;;;;4.4;2.4;;;;;;;13.62;65.71582;913.9156;;;;
2024/02/09 14:28:33;;;;;;;3.5;2.3;;;;;;;13.66;65.58496;914.0291;;;;
2024/02/09 14:31:00;;;;;;;5;2.2;;;;;;;13.46;66.12988;914.0193;;;;
2024/02/09 14:33:25;;;;;;;3.5;2.1;;;;;;;13.59;66.08008;914.0439;;;;
2024/02/09 14:35:49;;;;;;;3.3;2.2;;;;;;;13.56;66.48926;913.9835;;;;
2024/02/09 14:38:14;;;;;;;4.1;2.4;;;;;;;13.53;66.79688;913.9788;;;;
2024/02/09 14:40:39;;;;;;;3.4;2.3;;;;;;;13.48;67.01855;913.9211;;;;
2024/02/09 14:43:04;;;;;;;3.4;2.3;;;;;;;13.41;67.2373;913.9707;;;;
2024/02/09 14:45:29;;;;;;;4.2;2.5;;;;;;;13.32;67.44238;913.9367;;;;
2024/02/09 14:47:54;;;;;;;3.1;2.5;;;;;;;13.3;67.66895;913.9785;;;;
2024/02/09 14:50:19;;;;;;;4.5;2.9;;;;;;;13.33;67.81152;914.0388;;;;
2024/02/09 14:52:44;;;;;;;7;2.9;;;;;;;13.3;68.20801;914.0458;;;;
2024/02/09 14:55:10;;;;;;;4.4;3;;;;;;;13.3;68.23242;914.0663;;;;
2024/02/09 14:57:35;;;;;;;4.4;2.6;;;;;;;13.19;68.01855;914.0056;;;;
2024/02/09 15:00:00;;;;;;;5.4;2.8;;;;;;;13.08;68.42676;914.0112;;;;
2024/02/09 15:02:25;;;;;;;6.6;2.9;;;;;;;13.11;68.52246;914.0156;;;;
2024/02/09 15:04:50;;;;;;;4;2.7;;;;;;;13.12;68.99609;914.0417;;;;
2024/02/09 15:07:19;;;;;;;5.7;2.9;;;;;;;13.08;68.66797;913.8995;;;;
2024/02/09 15:09:40;;;;;;;4.2;2.8;;;;;;;12.94;69.15137;913.8455;;;;
2024/02/09 15:12:05;;;;;;;5.3;3;;;;;;;12.82;69.60352;913.7528;;;;
2024/02/09 15:14:30;;;;;;;6.7;3;;;;;;;12.86;69.63184;913.7631;;;;
2024/02/09 15:16:55;;;;;;;4.6;3.1;;;;;;;12.82;70.03809;913.7601;;;;
2024/02/09 15:19:20;;;;;;;5.5;3.1;;;;;;;12.88;69.81836;913.8383;;;;
2024/02/09 15:21:50;;;;;;;4;2.7;;;;;;;12.9;69.77539;913.9039;;;;
2024/02/09 15:24:11;;;;;;;5.1;2.8;;;;;;;12.82;69.84473;913.9716;;;;
2024/02/09 15:26:36;;;;;;;5.6;2.6;;;;;;;12.65;70.11328;913.9963;;;;
2024/02/09 15:29:01;;;;;;;6.8;3.3;;;;;;;12.72;69.81641;914.0037;;;;
2024/02/09 15:31:27;;;;;;;7.6;3.5;;;;;;;12.61;70.09668;913.9495;;;;
2024/02/09 15:33:51;;;;;;;7.7;4.2;;;;;;;12.66;70.08105;914.0126;;;;
2024/02/09 15:36:17;;;;;;;6.7;3.6;;;;;;;12.6;70.30176;914.0161;;;;
2024/02/09 15:38:43;;;;;;;8.4;3.7;;;;;;;12.62;70.44238;913.9319;;;;
2024/02/09 15:41:11;;;;;;;4.2;3;;;;;;;12.63;70.47754;913.9258;;;;
2024/02/09 15:43:32;;;;;;;8.8;2.8;;;;;;;12.61;70.61426;913.9752;;;;
2024/02/09 15:45:57;;;;;;;6.3;2.9;;;;;;;12.51;70.44727;914.0011;;;;
2024/02/09 15:48:24;;;;;;;6.2;3;;;;;;;12.5;70.58203;914.0303;;;;
2024/02/09 15:50:47;;;;;;;6.3;3.1;;;;;;;12.53;70.62207;913.9805;;;;
2024/02/09 15:53:12;;;;;;;5.7;2.9;;;;;;;12.47;70.77246;914.0561;;;;
2024/02/09 15:55:37;;;;;;;5.7;3.2;;;;;;;12.46;70.74805;913.9863;;;;
2024/02/09 15:58:03;;;;;;;5.8;3.5;;;;;;;12.46;70.97852;914.0069;;;;
2024/02/09 16:00:28;;;;;;;5.1;3.5;;;;;;;12.43;71.06348;913.9739;;;;
2024/02/09 16:02:53;;;;;;;5.1;3.2;;;;;;;12.43;70.9375;914.0042;;;;
2024/02/09 16:05:18;;;;;;;6.9;3.1;;;;;;;12.43;70.92578;913.9691;;;;
2024/02/09 16:07:44;;;;;;;6.2;3.1;;;;;;;12.36;71.18066;914.0478;;;;
2024/02/09 16:10:17;;;;;;;6;2.9;;;;;;;12.39;71.03613;914.0715;;;;
2024/02/09 16:12:33;;;;;;;10.2;5.4;;;;;;;12.4;70.96875;914.024;;;;
2024/02/09 16:14:58;;;;;;;7.4;4.4;;;;;;;12.36;71.16895;914.0591;;;;
2024/02/09 16:17:26;;;;;;;8.5;4.3;;;;;;;12.35;71.25781;914.0186;;;;
2024/02/09 16:19:49;;;;;;;9.7;5;;;;;;;12.38;71.19531;914.0759;;;;
2024/02/09 16:22:15;;;;;;;11.3;6;;;;;;;12.32;71.45996;914.0444;;;;
2024/02/09 16:24:39;;;;;;;9.9;5.8;;;;;;;12.24;71.6875;913.9853;;;;
2024/02/09 16:27:06;;;;;;;10.6;5.4;;;;;;;12.24;71.6416;914.0539;;;;
2024/02/09 16:29:29;;;;;;;8.5;4.7;;;;;;;12.21;71.91211;914.0596;;;;
2024/02/09 16:31:55;;;;;;;26.1;15.1;;;;;;;12.28;71.94531;914.1035;;;;
2024/02/09 16:34:19;;;;;;;51.3;28.9;;;;;;;12.24;72.24902;914.053;;;;
2024/02/09 16:36:45;;;;;;;45.8;27.2;;;;;;;12.15;72.66895;914.0105;;;;
2024/02/09 16:39:13;;;;;;;36.9;21;;;;;;;12.16;72.61328;914.0148;;;;
2024/02/09 16:41:35;;;;;;;31.6;17.7;;;;;;;12.1;72.90039;914.0131;;;;
2024/02/09 16:44:00;;;;;;;15.3;9.6;;;;;;;12.03;73.07324;913.8982;;;;
2024/02/09 16:46:28;;;;;;;20.6;12.1;;;;;;;12.01;73.23047;914.063;;;;